Nashville, Tennessee
Traffic Map
Current Weather Conditions
Nashville, Tennessee
Overcast
Overcast
71°
Feels Like: 71°
Wind Chill: 71° Ceiling: 9000
Heat Index: 71° Visibility: 10mi
Dew Point: 71° Wind: 9mph
Humidity: 100% Direction: 170° (S)
Pressure: 29.97in Gusts: 0mph
Raw Report DataKBNA 011953Z 17008KT 10SM FEW020 SCT044 BKN090 OVC140 22/22 A2997 RMK AO2 TSE12B14E32RAE53 SLP144 P0008 T02170217
Traffic Incident Summary
Active as of:
Severity:
Category:
InformationThere was an issue retrieving the traffic information for this location. Please try a different location or try again shortly.
Advertisements
Track Severe Weather on mobile